EKKA

Karup Airport

Karup, Denmark
TAF EKKA 251717Z 2518/2618 26012KT 9999 BKN020 TEMPO 2518/2522 4000 SHRA BKN005 BKN020CB TEMPO 2522/2607 4000 BR -SHRA BKN005 FEW020TCU TEMPO 2607/2612 4000 SHRA SCT020CB TEMPO 2612/2617 26015G25KT -SHRA FEW020CB
Issued Valid From Valid To
Apr-25 @ 17:17 UTC
(54 minutes ago)
Apr-25 @ 18:00 UTC
(11 minutes ago)
Apr-26 @ 18:00 UTC
(in 24 hours)
Apr-25 @ 18:00 to Apr-26 @ 18:00
TAF EKKA 251717Z 2518/2618 26012KT 9999 BKN020
Wind Visibility Clouds
260° at 12 knots 10,000+ meters
  • Broken at 2,000' AGL
Temporary Apr-25 @ 18:00 to Apr-25 @ 22:00
TEMPO 2518/2522 4000 SHRA BKN005 BKN020CB
Visibility Clouds Conditions
4,007 meters
  • Broken at 500' AGL
  • Broken at 2,000' AGL
  • Rain
Temporary Apr-25 @ 22:00 to Apr-26 @ 07:00
TEMPO 2522/2607 4000 BR -SHRA BKN005 FEW020TCU
Visibility Clouds Conditions
4,007 meters
  • Broken at 500' AGL
  • Few at 2,000' AGL
  • Mist
  • Light Rain
Temporary Apr-26 @ 07:00 to Apr-26 @ 12:00
TEMPO 2607/2612 4000 SHRA SCT020CB
Visibility Clouds Conditions
4,007 meters
  • Scattered at 2,000' AGL
  • Rain
Temporary Apr-26 @ 12:00 to Apr-26 @ 17:00
TEMPO 2612/2617 26015G25KT -SHRA FEW020CB
Wind Clouds Conditions
260° at 15 knots
 Gusting to 25 knots
  • Few at 2,000' AGL
  • Light Rain
TAF EKKA 251717Z 2518/2618 26012KT 9999 BKN020 TEMPO 2518/2522 4000 SHRA BKN005 BKN020CB TEMPO 2522/2607 4000 BR -SHRA BKN005 FEW020TCU TEMPO 2607/2612 4000 SHRA SCT020CB TEMPO 2612/2617 26015G25KT -SHRA FEW020CB
Issued Apr-25 @ 17:17 UTC
(54 minutes ago)
Valid From Apr-25 @ 18:00 UTC
(11 minutes ago)
Valid To Apr-26 @ 18:00 UTC
(in 24 hours)
Apr-25 @ 18:00 - Apr-26 @ 18:00
Wind Visibility
260° at 12 knots 10,000+ meters
Clouds
  • Broken at 2,000' AGL
Temporary Apr-25 @ 18:00 - Apr-25 @ 22:00
Clouds
  • Broken at 500' AGL
  • Broken at 2,000' AGL
Conditions
  • Rain
Temporary Apr-25 @ 22:00 - Apr-26 @ 07:00
Clouds
  • Broken at 500' AGL
  • Few at 2,000' AGL
Conditions
  • Mist
  • Light Rain
Temporary Apr-26 @ 07:00 - Apr-26 @ 12:00
Clouds
  • Scattered at 2,000' AGL
Conditions
  • Rain
Temporary Apr-26 @ 12:00 - Apr-26 @ 17:00
Wind
260° at 15 knots
 Gusting to 25 knots
Clouds
  • Few at 2,000' AGL
Conditions
  • Light Rain